Eustis, ME (04936)

5:39 PM EDT on July 25, 2014 (GMT -0400)
Berlin Municipal (KBML) Elev 1158 ft | 44.58 °N, 71.18 °W | Change Station

Current weather conditions updated 47 minutes ago

Clear
Clear
76 °F
Feels Like 76 °F
N
7
Wind Variable Wind from Variable

Tomorrow is forecast to be nearly the same temperature as today. Showers late tomorrow night.

Today
High -- | Low -- °F
--% Chance of Precip.
Yesterday
High -- | Low -- °F
Precip. -- in
5:18 AM 8:17 PM
Waning Crescent, 1% visible
Pressure 29.92 in
Visibility 6.0 miles
Clouds Clear
Dew Point 54 °F
Humidity 46%
Rainfall 0.00 in
Snow Depth Not available.
UV 4 out of 12
Pollen 5.40 out of 12
Ozone Good
Flu Activity Not available.
METAR KBML 252052Z AUTO VRB06KT 6SM HZ CLR 24/12 A2992 RMK AO2 SLP132 T02440122 58006

More Conditions Fewer Conditions

Pressure 29.92 in
Visibility 6.0 miles
Clouds Clear
Dew Point 54 °F
Humidity 46%
Rainfall 0.00 in
Snow Depth Not available.
UV 4 out of 12
Pollen 5.40 out of 12
Ozone Good
Flu Activity Not available.
METAR KBML 252052Z AUTO VRB06KT 6SM HZ CLR 24/12 A2992 RMK AO2 SLP132 T02440122 58006

More Conditions Fewer Conditions

10-Day Weather Forecast

Almanac

Astronomy

Jul. 25, 2014 Rise Set
Actual Time 5:18 AM EDT 8:17 PM EDT
Civil Twilight 4:44 AM EDT 8:52 PM EDT
Nautical Twilight 3:59 AM EDT 9:36 PM EDT
Astronomical Twilight 3:06 AM EDT 10:29 PM EDT
Moon 4:17 AM EDT 7:09 PM EDT
Length of Visible Light 16h 07m
Length of Day
14h 58m
Tomorrow will be 2m 10s shorter.
Waning Crescent, 1% of the Moon is Illuminated
Today
Waning Crescent
Jul 26
New
Aug 3
First Quarter
Aug 10
Full
Aug 17
Last Quarter

Today's Extremes

State Highs State Lows

Community

WunderPhotos

Upload Photos

1,737,411 photos uploaded!

Nearby

Air Quality

  Air Quality AQ Index Pollutant
Yesterday Good
OZONE
Current Good
OZONE
Friday Good
OZONE
Friday Good
PM2.5
Saturday Good
OZONE
Saturday Good
PM2.5
Sunday Good
OZONE
Sunday Good
PM2.5
Monday Good
OZONE
Monday Good
PM2.5
Tuesday Good
OZONE
Tuesday Good
PM2.5

Snow Depth

Station Depth Elevation
No new snow has been reported.

Earthquake Activity

City Distance Mag. Time & Date
No recent earthquake activity has been reported nearby.
Minimum magnitude displayed is 2.5.

Coastal Water Temperatures

Place Temperature
No Stations Reporting

Nearby Weather Stations

Station Location Temp. Heat Index Dew Point Humidity Wind Precip. Elev Updated Type
HADS FLAGSTAFF CLIMATE STATION AT FLA ME, Carabaset Valley, ME 76 °F 74 °F - - North  at  - 0.00 in / hr 1160 ft 4:15 PM EDT MADIS
HADS SPENCER STREAM AT MOUTH NEAR GRA ME, Jackman, ME 74 °F 72 °F - - North  at  - 0.00 in / hr 1000 ft 5:00 PM EDT MADIS
HADS OQUOSSOC CLIMATE STATION ME, Oquossoc, ME 75 °F 73 °F - - North  at  - 0.00 in / hr 1495 ft 4:45 PM EDT MADIS

Show More Stations Show Fewer Stations